sensor_id;sensor_type;location;lat;lon;timestamp;P1;durP1;ratioP1;P2;durP2;ratioP2
7659;SDS011;3872;47.902;8.162;2023-06-22T00:01:09;17.47;;;7.00;;
7659;SDS011;3872;47.902;8.162;2023-06-22T00:03:35;16.50;;;6.53;;
7659;SDS011;3872;47.902;8.162;2023-06-22T00:06:02;13.83;;;6.43;;
7659;SDS011;3872;47.902;8.162;2023-06-22T00:08:28;10.93;;;5.97;;
7659;SDS011;3872;47.902;8.162;2023-06-22T00:10:55;16.20;;;6.43;;
7659;SDS011;3872;47.902;8.162;2023-06-22T00:13:28;11.90;;;5.90;;
7659;SDS011;3872;47.902;8.162;2023-06-22T00:15:54;10.70;;;5.67;;
7659;SDS011;3872;47.902;8.162;2023-06-22T00:18:21;9.77;;;6.07;;
7659;SDS011;3872;47.902;8.162;2023-06-22T00:20:47;13.60;;;5.73;;
7659;SDS011;3872;47.902;8.162;2023-06-22T00:23:14;13.90;;;5.80;;
7659;SDS011;3872;47.902;8.162;2023-06-22T00:25:42;32.60;;;6.50;;
7659;SDS011;3872;47.902;8.162;2023-06-22T00:28:08;10.40;;;5.53;;
7659;SDS011;3872;47.902;8.162;2023-06-22T00:30:36;13.00;;;5.47;;
7659;SDS011;3872;47.902;8.162;2023-06-22T00:33:03;14.37;;;6.10;;
7659;SDS011;3872;47.902;8.162;2023-06-22T00:35:32;11.77;;;6.03;;
7659;SDS011;3872;47.902;8.162;2023-06-22T00:38:00;13.07;;;5.90;;
7659;SDS011;3872;47.902;8.162;2023-06-22T00:40:28;11.80;;;5.73;;
7659;SDS011;3872;47.902;8.162;2023-06-22T00:42:56;21.23;;;5.73;;
7659;SDS011;3872;47.902;8.162;2023-06-22T00:45:23;15.87;;;6.50;;
7659;SDS011;3872;47.902;8.162;2023-06-22T00:47:52;12.60;;;5.73;;
7659;SDS011;3872;47.902;8.162;2023-06-22T00:50:19;10.57;;;6.47;;
7659;SDS011;3872;47.902;8.162;2023-06-22T00:52:48;14.43;;;6.30;;
7659;SDS011;3872;47.902;8.162;2023-06-22T00:55:18;13.70;;;6.53;;
7659;SDS011;3872;47.902;8.162;2023-06-22T00:57:45;14.60;;;6.37;;
7659;SDS011;3872;47.902;8.162;2023-06-22T01:00:13;12.87;;;5.57;;
7659;SDS011;3872;47.902;8.162;2023-06-22T01:02:42;19.60;;;6.30;;
7659;SDS011;3872;47.902;8.162;2023-06-22T01:05:12;13.77;;;6.10;;
7659;SDS011;3872;47.902;8.162;2023-06-22T01:07:39;10.50;;;5.80;;
7659;SDS011;3872;47.902;8.162;2023-06-22T01:10:11;12.00;;;5.60;;
7659;SDS011;3872;47.902;8.162;2023-06-22T01:12:47;12.17;;;5.93;;
7659;SDS011;3872;47.902;8.162;2023-06-22T01:15:18;12.50;;;5.00;;
7659;SDS011;3872;47.902;8.162;2023-06-22T01:17:49;10.60;;;4.60;;
7659;SDS011;3872;47.902;8.162;2023-06-22T01:20:19;11.77;;;4.47;;
7659;SDS011;3872;47.902;8.162;2023-06-22T01:22:50;9.00;;;4.47;;
7659;SDS011;3872;47.902;8.162;2023-06-22T01:25:28;13.53;;;4.07;;
7659;SDS011;3872;47.902;8.162;2023-06-22T01:28:03;7.13;;;3.60;;
7659;SDS011;3872;47.902;8.162;2023-06-22T01:30:42;9.80;;;3.87;;
7659;SDS011;3872;47.902;8.162;2023-06-22T01:33:11;6.83;;;3.83;;
7659;SDS011;3872;47.902;8.162;2023-06-22T01:35:39;7.70;;;4.03;;
7659;SDS011;3872;47.902;8.162;2023-06-22T01:38:07;11.50;;;5.23;;
7659;SDS011;3872;47.902;8.162;2023-06-22T01:40:35;8.53;;;4.50;;
7659;SDS011;3872;47.902;8.162;2023-06-22T01:43:02;8.77;;;4.90;;
7659;SDS011;3872;47.902;8.162;2023-06-22T01:45:30;9.70;;;5.43;;
7659;SDS011;3872;47.902;8.162;2023-06-22T01:47:58;8.03;;;4.70;;
7659;SDS011;3872;47.902;8.162;2023-06-22T01:50:26;8.20;;;4.27;;
7659;SDS011;3872;47.902;8.162;2023-06-22T01:52:55;11.93;;;4.40;;
7659;SDS011;3872;47.902;8.162;2023-06-22T01:55:21;11.63;;;5.30;;
7659;SDS011;3872;47.902;8.162;2023-06-22T01:57:48;8.70;;;4.60;;
7659;SDS011;3872;47.902;8.162;2023-06-22T02:00:17;9.70;;;5.13;;
7659;SDS011;3872;47.902;8.162;2023-06-22T02:02:49;12.93;;;5.50;;
7659;SDS011;3872;47.902;8.162;2023-06-22T02:05:23;18.10;;;5.80;;
7659;SDS011;3872;47.902;8.162;2023-06-22T02:07:54;12.70;;;5.50;;
7659;SDS011;3872;47.902;8.162;2023-06-22T02:10:26;13.10;;;4.67;;
7659;SDS011;3872;47.902;8.162;2023-06-22T02:12:56;8.80;;;5.10;;
7659;SDS011;3872;47.902;8.162;2023-06-22T02:15:26;12.97;;;5.07;;
7659;SDS011;3872;47.902;8.162;2023-06-22T02:17:54;18.43;;;5.67;;
7659;SDS011;3872;47.902;8.162;2023-06-22T02:20:21;10.30;;;4.60;;
7659;SDS011;3872;47.902;8.162;2023-06-22T02:22:49;10.57;;;4.90;;
7659;SDS011;3872;47.902;8.162;2023-06-22T02:25:15;10.50;;;5.20;;
7659;SDS011;3872;47.902;8.162;2023-06-22T02:27:44;12.33;;;4.87;;
7659;SDS011;3872;47.902;8.162;2023-06-22T02:30:11;13.43;;;4.50;;
7659;SDS011;3872;47.902;8.162;2023-06-22T02:32:40;9.70;;;4.80;;
7659;SDS011;3872;47.902;8.162;2023-06-22T02:35:07;11.10;;;5.00;;
7659;SDS011;3872;47.902;8.162;2023-06-22T02:37:35;11.83;;;5.20;;
7659;SDS011;3872;47.902;8.162;2023-06-22T02:40:06;10.00;;;5.40;;
7659;SDS011;3872;47.902;8.162;2023-06-22T02:42:34;9.27;;;4.60;;
7659;SDS011;3872;47.902;8.162;2023-06-22T02:45:00;13.80;;;5.23;;
7659;SDS011;3872;47.902;8.162;2023-06-22T02:47:27;13.83;;;5.60;;
7659;SDS011;3872;47.902;8.162;2023-06-22T02:49:53;11.73;;;5.30;;
7659;SDS011;3872;47.902;8.162;2023-06-22T02:52:20;17.53;;;5.80;;
7659;SDS011;3872;47.902;8.162;2023-06-22T02:54:47;10.20;;;4.50;;
7659;SDS011;3872;47.902;8.162;2023-06-22T02:57:15;10.50;;;5.80;;
7659;SDS011;3872;47.902;8.162;2023-06-22T02:59:43;15.63;;;5.47;;
7659;SDS011;3872;47.902;8.162;2023-06-22T03:02:11;13.17;;;5.60;;
7659;SDS011;3872;47.902;8.162;2023-06-22T03:04:38;20.67;;;6.30;;
7659;SDS011;3872;47.902;8.162;2023-06-22T03:07:05;9.50;;;5.33;;
7659;SDS011;3872;47.902;8.162;2023-06-22T03:09:32;12.73;;;4.43;;
7659;SDS011;3872;47.902;8.162;2023-06-22T03:11:58;10.93;;;5.10;;
7659;SDS011;3872;47.902;8.162;2023-06-22T03:14:34;11.70;;;4.90;;
7659;SDS011;3872;47.902;8.162;2023-06-22T03:17:02;10.20;;;5.40;;
7659;SDS011;3872;47.902;8.162;2023-06-22T03:19:29;13.20;;;5.13;;
7659;SDS011;3872;47.902;8.162;2023-06-22T03:21:56;11.83;;;5.40;;
7659;SDS011;3872;47.902;8.162;2023-06-22T03:24:24;10.37;;;4.73;;
7659;SDS011;3872;47.902;8.162;2023-06-22T03:26:54;11.80;;;5.97;;
7659;SDS011;3872;47.902;8.162;2023-06-22T03:29:21;12.63;;;5.70;;
7659;SDS011;3872;47.902;8.162;2023-06-22T03:31:50;17.30;;;6.87;;
7659;SDS011;3872;47.902;8.162;2023-06-22T03:34:16;24.87;;;6.27;;
7659;SDS011;3872;47.902;8.162;2023-06-22T03:36:43;15.53;;;5.47;;
7659;SDS011;3872;47.902;8.162;2023-06-22T03:39:11;9.50;;;4.80;;
7659;SDS011;3872;47.902;8.162;2023-06-22T03:41:39;10.93;;;5.50;;
7659;SDS011;3872;47.902;8.162;2023-06-22T03:44:06;9.57;;;5.20;;
7659;SDS011;3872;47.902;8.162;2023-06-22T03:46:35;18.57;;;5.07;;
7659;SDS011;3872;47.902;8.162;2023-06-22T03:49:03;7.70;;;4.50;;
7659;SDS011;3872;47.902;8.162;2023-06-22T03:51:30;7.43;;;4.53;;
7659;SDS011;3872;47.902;8.162;2023-06-22T03:53:58;16.40;;;5.70;;
7659;SDS011;3872;47.902;8.162;2023-06-22T03:56:25;9.37;;;5.00;;
7659;SDS011;3872;47.902;8.162;2023-06-22T03:58:51;12.97;;;7.07;;
7659;SDS011;3872;47.902;8.162;2023-06-22T04:01:18;15.93;;;5.90;;
7659;SDS011;3872;47.902;8.162;2023-06-22T04:03:45;12.77;;;6.50;;
7659;SDS011;3872;47.902;8.162;2023-06-22T04:06:15;15.90;;;7.10;;
7659;SDS011;3872;47.902;8.162;2023-06-22T04:08:41;15.10;;;6.93;;
7659;SDS011;3872;47.902;8.162;2023-06-22T04:11:08;13.30;;;6.00;;
7659;SDS011;3872;47.902;8.162;2023-06-22T04:13:34;13.83;;;5.20;;
7659;SDS011;3872;47.902;8.162;2023-06-22T04:16:01;11.60;;;6.00;;
7659;SDS011;3872;47.902;8.162;2023-06-22T04:18:27;12.40;;;6.43;;
7659;SDS011;3872;47.902;8.162;2023-06-22T04:20:54;16.53;;;5.40;;
7659;SDS011;3872;47.902;8.162;2023-06-22T04:23:22;14.00;;;6.10;;
7659;SDS011;3872;47.902;8.162;2023-06-22T04:25:48;12.50;;;5.97;;
7659;SDS011;3872;47.902;8.162;2023-06-22T04:28:15;10.60;;;5.97;;
7659;SDS011;3872;47.902;8.162;2023-06-22T04:30:42;11.40;;;5.70;;
7659;SDS011;3872;47.902;8.162;2023-06-22T04:33:12;12.47;;;4.80;;
7659;SDS011;3872;47.902;8.162;2023-06-22T04:35:39;12.13;;;4.80;;
7659;SDS011;3872;47.902;8.162;2023-06-22T04:38:06;14.03;;;6.30;;
7659;SDS011;3872;47.902;8.162;2023-06-22T04:40:34;11.23;;;5.33;;
7659;SDS011;3872;47.902;8.162;2023-06-22T04:43:01;16.70;;;5.27;;
7659;SDS011;3872;47.902;8.162;2023-06-22T04:45:28;19.53;;;5.63;;
7659;SDS011;3872;47.902;8.162;2023-06-22T04:47:55;12.60;;;6.13;;
7659;SDS011;3872;47.902;8.162;2023-06-22T04:50:22;10.20;;;4.87;;
7659;SDS011;3872;47.902;8.162;2023-06-22T04:52:48;10.03;;;5.13;;
7659;SDS011;3872;47.902;8.162;2023-06-22T04:55:16;11.23;;;5.50;;
7659;SDS011;3872;47.902;8.162;2023-06-22T04:57:44;12.60;;;6.17;;
7659;SDS011;3872;47.902;8.162;2023-06-22T05:00:14;10.23;;;5.90;;
7659;SDS011;3872;47.902;8.162;2023-06-22T05:02:42;12.00;;;5.60;;
7659;SDS011;3872;47.902;8.162;2023-06-22T05:05:10;11.77;;;5.20;;
7659;SDS011;3872;47.902;8.162;2023-06-22T05:07:38;13.50;;;6.90;;
7659;SDS011;3872;47.902;8.162;2023-06-22T05:10:08;9.60;;;4.97;;
7659;SDS011;3872;47.902;8.162;2023-06-22T05:12:35;13.80;;;6.23;;
7659;SDS011;3872;47.902;8.162;2023-06-22T05:15:03;10.73;;;5.60;;
7659;SDS011;3872;47.902;8.162;2023-06-22T05:17:30;12.67;;;6.33;;
7659;SDS011;3872;47.902;8.162;2023-06-22T05:19:56;10.70;;;5.00;;
7659;SDS011;3872;47.902;8.162;2023-06-22T05:22:23;16.27;;;5.47;;
7659;SDS011;3872;47.902;8.162;2023-06-22T05:24:49;12.77;;;6.07;;
7659;SDS011;3872;47.902;8.162;2023-06-22T05:27:16;11.70;;;6.40;;
7659;SDS011;3872;47.902;8.162;2023-06-22T05:29:42;10.10;;;5.70;;
7659;SDS011;3872;47.902;8.162;2023-06-22T05:32:10;11.00;;;5.47;;
7659;SDS011;3872;47.902;8.162;2023-06-22T05:34:37;19.63;;;6.00;;
7659;SDS011;3872;47.902;8.162;2023-06-22T05:37:03;16.60;;;6.00;;
7659;SDS011;3872;47.902;8.162;2023-06-22T05:39:31;11.20;;;5.67;;
7659;SDS011;3872;47.902;8.162;2023-06-22T05:41:58;14.03;;;5.90;;
7659;SDS011;3872;47.902;8.162;2023-06-22T05:44:24;11.37;;;5.67;;
7659;SDS011;3872;47.902;8.162;2023-06-22T05:46:51;12.40;;;5.53;;
7659;SDS011;3872;47.902;8.162;2023-06-22T05:49:19;9.57;;;5.40;;
7659;SDS011;3872;47.902;8.162;2023-06-22T05:51:47;11.27;;;5.77;;
7659;SDS011;3872;47.902;8.162;2023-06-22T05:54:13;13.50;;;5.73;;
7659;SDS011;3872;47.902;8.162;2023-06-22T05:56:42;24.70;;;5.87;;
7659;SDS011;3872;47.902;8.162;2023-06-22T05:59:09;15.60;;;6.60;;
7659;SDS011;3872;47.902;8.162;2023-06-22T06:01:36;19.53;;;5.57;;
7659;SDS011;3872;47.902;8.162;2023-06-22T06:04:02;17.73;;;6.73;;
7659;SDS011;3872;47.902;8.162;2023-06-22T06:06:31;12.50;;;5.77;;
7659;SDS011;3872;47.902;8.162;2023-06-22T06:09:00;13.13;;;6.00;;
7659;SDS011;3872;47.902;8.162;2023-06-22T06:11:26;16.10;;;6.30;;
7659;SDS011;3872;47.902;8.162;2023-06-22T06:13:53;13.80;;;6.27;;
7659;SDS011;3872;47.902;8.162;2023-06-22T06:16:19;12.90;;;5.80;;
7659;SDS011;3872;47.902;8.162;2023-06-22T06:18:46;13.90;;;5.70;;
7659;SDS011;3872;47.902;8.162;2023-06-22T06:21:13;14.13;;;6.00;;
7659;SDS011;3872;47.902;8.162;2023-06-22T06:23:41;14.87;;;5.50;;
7659;SDS011;3872;47.902;8.162;2023-06-22T06:26:08;17.07;;;5.40;;
7659;SDS011;3872;47.902;8.162;2023-06-22T06:28:35;12.43;;;5.10;;
7659;SDS011;3872;47.902;8.162;2023-06-22T06:31:01;14.03;;;5.07;;
7659;SDS011;3872;47.902;8.162;2023-06-22T06:33:32;29.17;;;5.30;;
7659;SDS011;3872;47.902;8.162;2023-06-22T06:35:58;9.00;;;4.47;;
7659;SDS011;3872;47.902;8.162;2023-06-22T06:38:27;14.20;;;5.30;;
7659;SDS011;3872;47.902;8.162;2023-06-22T06:40:55;17.97;;;5.93;;
7659;SDS011;3872;47.902;8.162;2023-06-22T06:43:21;12.70;;;5.93;;
7659;SDS011;3872;47.902;8.162;2023-06-22T06:45:48;18.80;;;5.83;;
7659;SDS011;3872;47.902;8.162;2023-06-22T06:48:15;13.60;;;6.17;;
7659;SDS011;3872;47.902;8.162;2023-06-22T06:50:42;17.50;;;5.80;;
7659;SDS011;3872;47.902;8.162;2023-06-22T06:53:09;11.07;;;5.93;;
7659;SDS011;3872;47.902;8.162;2023-06-22T06:55:36;12.50;;;5.40;;
7659;SDS011;3872;47.902;8.162;2023-06-22T06:58:04;14.20;;;4.83;;
7659;SDS011;3872;47.902;8.162;2023-06-22T07:00:32;16.20;;;6.10;;
7659;SDS011;3872;47.902;8.162;2023-06-22T07:03:01;13.43;;;5.00;;
7659;SDS011;3872;47.902;8.162;2023-06-22T07:05:27;21.40;;;5.53;;
7659;SDS011;3872;47.902;8.162;2023-06-22T07:07:54;15.63;;;5.37;;
7659;SDS011;3872;47.902;8.162;2023-06-22T07:10:20;14.43;;;5.57;;
7659;SDS011;3872;47.902;8.162;2023-06-22T07:12:47;15.90;;;5.33;;
7659;SDS011;3872;47.902;8.162;2023-06-22T07:15:15;15.07;;;5.70;;
7659;SDS011;3872;47.902;8.162;2023-06-22T07:17:41;12.30;;;5.77;;
7659;SDS011;3872;47.902;8.162;2023-06-22T07:20:08;13.27;;;5.37;;
7659;SDS011;3872;47.902;8.162;2023-06-22T07:22:37;14.17;;;5.27;;
7659;SDS011;3872;47.902;8.162;2023-06-22T07:25:04;12.93;;;5.50;;
7659;SDS011;3872;47.902;8.162;2023-06-22T07:27:34;13.80;;;6.17;;
7659;SDS011;3872;47.902;8.162;2023-06-22T07:30:03;12.73;;;5.77;;
7659;SDS011;3872;47.902;8.162;2023-06-22T07:32:32;14.50;;;4.80;;
7659;SDS011;3872;47.902;8.162;2023-06-22T07:34:58;18.40;;;5.73;;
7659;SDS011;3872;47.902;8.162;2023-06-22T07:37:25;10.43;;;4.87;;
7659;SDS011;3872;47.902;8.162;2023-06-22T07:39:52;16.60;;;4.97;;
7659;SDS011;3872;47.902;8.162;2023-06-22T07:42:23;14.33;;;4.77;;
7659;SDS011;3872;47.902;8.162;2023-06-22T07:44:50;13.70;;;5.57;;
7659;SDS011;3872;47.902;8.162;2023-06-22T07:47:17;15.10;;;5.27;;
7659;SDS011;3872;47.902;8.162;2023-06-22T07:49:45;17.13;;;5.40;;
7659;SDS011;3872;47.902;8.162;2023-06-22T07:52:12;12.93;;;5.07;;
7659;SDS011;3872;47.902;8.162;2023-06-22T07:54:38;15.80;;;4.80;;
7659;SDS011;3872;47.902;8.162;2023-06-22T07:57:05;11.90;;;4.80;;
7659;SDS011;3872;47.902;8.162;2023-06-22T07:59:31;20.70;;;5.03;;
7659;SDS011;3872;47.902;8.162;2023-06-22T08:01:58;15.20;;;4.93;;
7659;SDS011;3872;47.902;8.162;2023-06-22T08:04:25;12.63;;;5.20;;
7659;SDS011;3872;47.902;8.162;2023-06-22T08:06:53;13.77;;;4.60;;
7659;SDS011;3872;47.902;8.162;2023-06-22T08:09:20;11.67;;;4.13;;
7659;SDS011;3872;47.902;8.162;2023-06-22T08:11:46;17.00;;;5.03;;
7659;SDS011;3872;47.902;8.162;2023-06-22T08:14:14;15.30;;;4.97;;
7659;SDS011;3872;47.902;8.162;2023-06-22T08:16:40;9.70;;;4.00;;
7659;SDS011;3872;47.902;8.162;2023-06-22T08:19:07;15.13;;;4.33;;
7659;SDS011;3872;47.902;8.162;2023-06-22T08:21:34;22.23;;;5.23;;
7659;SDS011;3872;47.902;8.162;2023-06-22T08:24:02;15.17;;;4.53;;
7659;SDS011;3872;47.902;8.162;2023-06-22T08:26:29;9.50;;;4.03;;
7659;SDS011;3872;47.902;8.162;2023-06-22T08:28:55;13.23;;;4.17;;
7659;SDS011;3872;47.902;8.162;2023-06-22T08:31:22;13.73;;;3.80;;
7659;SDS011;3872;47.902;8.162;2023-06-22T08:33:48;18.23;;;4.47;;
7659;SDS011;3872;47.902;8.162;2023-06-22T08:36:15;14.87;;;4.30;;
7659;SDS011;3872;47.902;8.162;2023-06-22T08:38:41;16.97;;;3.70;;
7659;SDS011;3872;47.902;8.162;2023-06-22T08:41:09;18.97;;;4.23;;
7659;SDS011;3872;47.902;8.162;2023-06-22T08:43:36;17.60;;;4.10;;
7659;SDS011;3872;47.902;8.162;2023-06-22T08:46:02;18.23;;;3.70;;
7659;SDS011;3872;47.902;8.162;2023-06-22T08:48:29;17.50;;;4.57;;
7659;SDS011;3872;47.902;8.162;2023-06-22T08:50:55;18.43;;;3.90;;
7659;SDS011;3872;47.902;8.162;2023-06-22T08:53:22;14.13;;;4.40;;
7659;SDS011;3872;47.902;8.162;2023-06-22T08:55:49;18.43;;;4.00;;
7659;SDS011;3872;47.902;8.162;2023-06-22T08:58:18;16.10;;;4.67;;
7659;SDS011;3872;47.902;8.162;2023-06-22T09:00:45;18.80;;;4.47;;
7659;SDS011;3872;47.902;8.162;2023-06-22T09:03:11;11.00;;;4.60;;
7659;SDS011;3872;47.902;8.162;2023-06-22T09:05:38;13.77;;;4.10;;
7659;SDS011;3872;47.902;8.162;2023-06-22T09:08:04;16.33;;;4.10;;
7659;SDS011;3872;47.902;8.162;2023-06-22T09:10:31;17.27;;;4.70;;
7659;SDS011;3872;47.902;8.162;2023-06-22T09:12:57;28.03;;;4.00;;
7659;SDS011;3872;47.902;8.162;2023-06-22T09:15:25;21.17;;;3.67;;
7659;SDS011;3872;47.902;8.162;2023-06-22T09:17:52;15.13;;;3.67;;
7659;SDS011;3872;47.902;8.162;2023-06-22T09:20:19;12.57;;;3.37;;
7659;SDS011;3872;47.902;8.162;2023-06-22T09:22:46;11.13;;;3.27;;
7659;SDS011;3872;47.902;8.162;2023-06-22T09:25:12;13.43;;;3.30;;
7659;SDS011;3872;47.902;8.162;2023-06-22T09:27:39;11.70;;;3.07;;
7659;SDS011;3872;47.902;8.162;2023-06-22T09:30:06;14.80;;;3.10;;
7659;SDS011;3872;47.902;8.162;2023-06-22T09:32:35;16.80;;;3.30;;
7659;SDS011;3872;47.902;8.162;2023-06-22T09:35:03;15.80;;;3.40;;
7659;SDS011;3872;47.902;8.162;2023-06-22T09:37:32;13.87;;;3.00;;
7659;SDS011;3872;47.902;8.162;2023-06-22T09:39:58;22.13;;;3.60;;
7659;SDS011;3872;47.902;8.162;2023-06-22T09:42:25;17.13;;;3.13;;
7659;SDS011;3872;47.902;8.162;2023-06-22T09:44:51;16.10;;;2.67;;
7659;SDS011;3872;47.902;8.162;2023-06-22T09:47:18;12.33;;;2.90;;
7659;SDS011;3872;47.902;8.162;2023-06-22T09:49:46;17.87;;;3.10;;
7659;SDS011;3872;47.902;8.162;2023-06-22T09:52:12;11.13;;;3.03;;
7659;SDS011;3872;47.902;8.162;2023-06-22T09:54:39;14.53;;;2.67;;
7659;SDS011;3872;47.902;8.162;2023-06-22T09:57:05;13.93;;;3.00;;
7659;SDS011;3872;47.902;8.162;2023-06-22T09:59:32;18.90;;;3.57;;
7659;SDS011;3872;47.902;8.162;2023-06-22T10:01:59;13.37;;;3.27;;
7659;SDS011;3872;47.902;8.162;2023-06-22T10:04:25;11.57;;;3.10;;
7659;SDS011;3872;47.902;8.162;2023-06-22T10:06:53;21.17;;;3.13;;
7659;SDS011;3872;47.902;8.162;2023-06-22T10:09:20;22.40;;;2.60;;
7659;SDS011;3872;47.902;8.162;2023-06-22T10:11:46;15.50;;;3.20;;
7659;SDS011;3872;47.902;8.162;2023-06-22T10:14:13;11.00;;;3.50;;
7659;SDS011;3872;47.902;8.162;2023-06-22T10:16:39;12.37;;;2.37;;
7659;SDS011;3872;47.902;8.162;2023-06-22T10:19:06;21.83;;;4.13;;
7659;SDS011;3872;47.902;8.162;2023-06-22T10:21:33;15.30;;;3.00;;
7659;SDS011;3872;47.902;8.162;2023-06-22T10:24:01;16.00;;;3.37;;
7659;SDS011;3872;47.902;8.162;2023-06-22T10:26:31;12.63;;;2.70;;
7659;SDS011;3872;47.902;8.162;2023-06-22T10:28:57;15.73;;;2.80;;
7659;SDS011;3872;47.902;8.162;2023-06-22T10:31:24;13.60;;;3.33;;
7659;SDS011;3872;47.902;8.162;2023-06-22T10:33:50;9.77;;;2.83;;
7659;SDS011;3872;47.902;8.162;2023-06-22T10:36:18;11.80;;;1.90;;
7659;SDS011;3872;47.902;8.162;2023-06-22T10:38:44;24.93;;;3.10;;
7659;SDS011;3872;47.902;8.162;2023-06-22T10:41:13;11.07;;;2.63;;
7659;SDS011;3872;47.902;8.162;2023-06-22T10:43:40;8.43;;;2.20;;
7659;SDS011;3872;47.902;8.162;2023-06-22T10:46:06;8.83;;;2.57;;
7659;SDS011;3872;47.902;8.162;2023-06-22T10:48:33;10.00;;;2.77;;
7659;SDS011;3872;47.902;8.162;2023-06-22T10:50:59;22.00;;;2.87;;
7659;SDS011;3872;47.902;8.162;2023-06-22T10:53:26;14.30;;;2.60;;
7659;SDS011;3872;47.902;8.162;2023-06-22T10:55:52;8.80;;;2.07;;
7659;SDS011;3872;47.902;8.162;2023-06-22T10:58:21;12.30;;;2.57;;
7659;SDS011;3872;47.902;8.162;2023-06-22T11:00:47;19.33;;;3.67;;
7659;SDS011;3872;47.902;8.162;2023-06-22T11:03:14;11.47;;;2.20;;
7659;SDS011;3872;47.902;8.162;2023-06-22T11:05:40;10.33;;;2.47;;
7659;SDS011;3872;47.902;8.162;2023-06-22T11:08:07;9.97;;;2.70;;
7659;SDS011;3872;47.902;8.162;2023-06-22T11:10:34;11.60;;;2.60;;
7659;SDS011;3872;47.902;8.162;2023-06-22T11:13:00;13.67;;;2.83;;
7659;SDS011;3872;47.902;8.162;2023-06-22T11:15:30;12.27;;;2.80;;
7659;SDS011;3872;47.902;8.162;2023-06-22T11:17:57;12.63;;;3.00;;
7659;SDS011;3872;47.902;8.162;2023-06-22T11:20:23;13.83;;;3.30;;
7659;SDS011;3872;47.902;8.162;2023-06-22T11:22:50;12.70;;;3.20;;
7659;SDS011;3872;47.902;8.162;2023-06-22T11:25:16;11.20;;;2.50;;
7659;SDS011;3872;47.902;8.162;2023-06-22T11:27:43;18.70;;;2.77;;
7659;SDS011;3872;47.902;8.162;2023-06-22T11:30:09;16.47;;;3.07;;
7659;SDS011;3872;47.902;8.162;2023-06-22T11:32:37;14.40;;;2.50;;
7659;SDS011;3872;47.902;8.162;2023-06-22T11:35:04;12.07;;;2.47;;
7659;SDS011;3872;47.902;8.162;2023-06-22T11:37:31;12.23;;;2.80;;
7659;SDS011;3872;47.902;8.162;2023-06-22T11:39:58;16.30;;;2.90;;
7659;SDS011;3872;47.902;8.162;2023-06-22T11:42:24;13.50;;;2.80;;
7659;SDS011;3872;47.902;8.162;2023-06-22T11:44:51;11.60;;;2.47;;
7659;SDS011;3872;47.902;8.162;2023-06-22T11:47:17;14.30;;;3.30;;
7659;SDS011;3872;47.902;8.162;2023-06-22T11:49:45;15.60;;;2.27;;
7659;SDS011;3872;47.902;8.162;2023-06-22T11:52:12;14.20;;;3.27;;
7659;SDS011;3872;47.902;8.162;2023-06-22T11:54:38;13.70;;;3.10;;
7659;SDS011;3872;47.902;8.162;2023-06-22T11:57:05;9.20;;;2.77;;
7659;SDS011;3872;47.902;8.162;2023-06-22T11:59:32;13.93;;;3.70;;
7659;SDS011;3872;47.902;8.162;2023-06-22T12:01:58;21.30;;;3.20;;
7659;SDS011;3872;47.902;8.162;2023-06-22T12:04:25;15.23;;;2.80;;
7659;SDS011;3872;47.902;8.162;2023-06-22T12:06:53;17.40;;;3.63;;
7659;SDS011;3872;47.902;8.162;2023-06-22T12:09:19;10.43;;;2.60;;
7659;SDS011;3872;47.902;8.162;2023-06-22T12:11:46;18.80;;;2.70;;
7659;SDS011;3872;47.902;8.162;2023-06-22T12:14:12;14.57;;;2.57;;
7659;SDS011;3872;47.902;8.162;2023-06-22T12:16:39;16.47;;;2.40;;
7659;SDS011;3872;47.902;8.162;2023-06-22T12:19:05;15.47;;;3.10;;
7659;SDS011;3872;47.902;8.162;2023-06-22T12:21:32;14.13;;;2.10;;
7659;SDS011;3872;47.902;8.162;2023-06-22T12:24:00;11.07;;;2.33;;
7659;SDS011;3872;47.902;8.162;2023-06-22T12:26:26;18.07;;;2.80;;
7659;SDS011;3872;47.902;8.162;2023-06-22T12:28:53;16.50;;;3.00;;
7659;SDS011;3872;47.902;8.162;2023-06-22T12:31:19;14.30;;;2.50;;
7659;SDS011;3872;47.902;8.162;2023-06-22T12:33:46;10.13;;;2.67;;
7659;SDS011;3872;47.902;8.162;2023-06-22T12:36:12;8.40;;;3.13;;
7659;SDS011;3872;47.902;8.162;2023-06-22T12:38:39;7.43;;;2.43;;
7659;SDS011;3872;47.902;8.162;2023-06-22T12:41:06;16.73;;;3.13;;
7659;SDS011;3872;47.902;8.162;2023-06-22T12:43:33;14.00;;;2.30;;
7659;SDS011;3872;47.902;8.162;2023-06-22T12:45:59;8.07;;;2.23;;
7659;SDS011;3872;47.902;8.162;2023-06-22T12:48:26;9.00;;;2.80;;
7659;SDS011;3872;47.902;8.162;2023-06-22T12:50:53;16.13;;;3.57;;
7659;SDS011;3872;47.902;8.162;2023-06-22T12:53:20;14.33;;;3.37;;
7659;SDS011;3872;47.902;8.162;2023-06-22T12:55:47;17.30;;;3.17;;
7659;SDS011;3872;47.902;8.162;2023-06-22T12:58:15;18.67;;;3.73;;
7659;SDS011;3872;47.902;8.162;2023-06-22T13:00:42;16.17;;;2.50;;
7659;SDS011;3872;47.902;8.162;2023-06-22T13:03:09;12.27;;;3.30;;
7659;SDS011;3872;47.902;8.162;2023-06-22T13:05:36;11.33;;;2.90;;
7659;SDS011;3872;47.902;8.162;2023-06-22T13:08:03;10.93;;;2.80;;
7659;SDS011;3872;47.902;8.162;2023-06-22T13:10:30;12.03;;;2.57;;
7659;SDS011;3872;47.902;8.162;2023-06-22T13:12:56;10.77;;;2.43;;
7659;SDS011;3872;47.902;8.162;2023-06-22T13:15:27;16.27;;;2.63;;
7659;SDS011;3872;47.902;8.162;2023-06-22T13:17:53;14.70;;;2.80;;
7659;SDS011;3872;47.902;8.162;2023-06-22T13:20:20;14.23;;;2.67;;
7659;SDS011;3872;47.902;8.162;2023-06-22T13:22:46;15.07;;;3.07;;
7659;SDS011;3872;47.902;8.162;2023-06-22T13:25:13;12.40;;;2.60;;
7659;SDS011;3872;47.902;8.162;2023-06-22T13:27:44;13.00;;;2.80;;
7659;SDS011;3872;47.902;8.162;2023-06-22T13:30:11;9.60;;;2.70;;
7659;SDS011;3872;47.902;8.162;2023-06-22T13:32:39;10.67;;;2.83;;
7659;SDS011;3872;47.902;8.162;2023-06-22T13:35:07;12.63;;;2.90;;
7659;SDS011;3872;47.902;8.162;2023-06-22T13:37:34;14.83;;;3.63;;
7659;SDS011;3872;47.902;8.162;2023-06-22T13:40:00;16.03;;;4.43;;
7659;SDS011;3872;47.902;8.162;2023-06-22T13:42:30;12.00;;;4.30;;
7659;SDS011;3872;47.902;8.162;2023-06-22T13:44:56;17.47;;;4.07;;
7659;SDS011;3872;47.902;8.162;2023-06-22T13:47:23;16.03;;;4.70;;
7659;SDS011;3872;47.902;8.162;2023-06-22T13:49:51;13.33;;;4.20;;
7659;SDS011;3872;47.902;8.162;2023-06-22T13:52:18;12.63;;;4.93;;
7659;SDS011;3872;47.902;8.162;2023-06-22T13:54:44;12.80;;;5.30;;
7659;SDS011;3872;47.902;8.162;2023-06-22T13:57:11;18.17;;;5.07;;
7659;SDS011;3872;47.902;8.162;2023-06-22T13:59:37;12.17;;;5.30;;
7659;SDS011;3872;47.902;8.162;2023-06-22T14:02:04;23.30;;;5.43;;
7659;SDS011;3872;47.902;8.162;2023-06-22T14:04:31;13.43;;;5.13;;
7659;SDS011;3872;47.902;8.162;2023-06-22T14:06:59;14.33;;;4.13;;
7659;SDS011;3872;47.902;8.162;2023-06-22T14:09:25;15.73;;;3.50;;
7659;SDS011;3872;47.902;8.162;2023-06-22T14:11:53;20.70;;;5.30;;
7659;SDS011;3872;47.902;8.162;2023-06-22T14:14:20;12.70;;;4.30;;
7659;SDS011;3872;47.902;8.162;2023-06-22T14:16:47;16.00;;;3.67;;
7659;SDS011;3872;47.902;8.162;2023-06-22T14:19:16;13.60;;;3.50;;
7659;SDS011;3872;47.902;8.162;2023-06-22T14:21:43;10.33;;;3.80;;
7659;SDS011;3872;47.902;8.162;2023-06-22T14:24:11;13.70;;;4.10;;
7659;SDS011;3872;47.902;8.162;2023-06-22T14:26:37;12.90;;;3.53;;
7659;SDS011;3872;47.902;8.162;2023-06-22T14:29:04;12.70;;;4.40;;
7659;SDS011;3872;47.902;8.162;2023-06-22T14:31:30;11.70;;;3.80;;
7659;SDS011;3872;47.902;8.162;2023-06-22T14:33:57;12.20;;;2.93;;
7659;SDS011;3872;47.902;8.162;2023-06-22T14:36:24;17.77;;;4.13;;
7659;SDS011;3872;47.902;8.162;2023-06-22T14:38:50;14.63;;;3.50;;
7659;SDS011;3872;47.902;8.162;2023-06-22T14:41:18;14.10;;;3.80;;
7659;SDS011;3872;47.902;8.162;2023-06-22T14:43:45;14.87;;;3.10;;
7659;SDS011;3872;47.902;8.162;2023-06-22T14:46:14;11.87;;;4.07;;
7659;SDS011;3872;47.902;8.162;2023-06-22T14:48:41;16.00;;;3.10;;
7659;SDS011;3872;47.902;8.162;2023-06-22T14:51:08;10.20;;;2.80;;
7659;SDS011;3872;47.902;8.162;2023-06-22T14:53:35;12.33;;;3.27;;
7659;SDS011;3872;47.902;8.162;2023-06-22T14:56:01;9.90;;;3.10;;
7659;SDS011;3872;47.902;8.162;2023-06-22T14:58:30;16.80;;;3.33;;
7659;SDS011;3872;47.902;8.162;2023-06-22T15:00:58;12.73;;;3.43;;
7659;SDS011;3872;47.902;8.162;2023-06-22T15:03:25;10.73;;;2.90;;